createdAt,value
2018-07-15T00:01:36.462Z,20.46
2018-07-15T00:04:07.033Z,20.49
2018-07-15T00:06:37.643Z,20.59
2018-07-15T00:09:08.934Z,20.68
2018-07-15T00:11:39.326Z,20.77
2018-07-15T00:14:09.739Z,20.78
2018-07-15T00:16:40.113Z,20.78
2018-07-15T00:19:10.535Z,20.80
2018-07-15T00:21:41.124Z,20.77
2018-07-15T00:24:11.502Z,20.76
2018-07-15T00:26:42.002Z,20.76
2018-07-15T00:29:12.438Z,20.80
2018-07-15T00:31:43.903Z,20.87
2018-07-15T00:34:14.435Z,20.97
2018-07-15T00:36:44.919Z,21.14
2018-07-15T00:39:15.303Z,21.24
2018-07-15T00:41:45.605Z,21.40
2018-07-15T00:44:15.936Z,21.51
2018-07-15T00:46:45.823Z,21.54
2018-07-15T00:49:16.163Z,21.58
2018-07-15T00:51:46.800Z,21.58
2018-07-15T00:54:17.288Z,21.68
2018-07-15T00:56:47.534Z,21.67
2018-07-15T00:59:17.988Z,21.61
2018-07-15T01:01:48.473Z,21.78
2018-07-15T01:04:18.965Z,22.17
2018-07-15T01:06:49.449Z,22.32
2018-07-15T01:09:20.024Z,22.29
2018-07-15T01:11:50.457Z,22.14
2018-07-15T01:14:23.692Z,22.10
2018-07-15T01:16:54.214Z,22.10
2018-07-15T01:19:24.649Z,22.10
2018-07-15T01:21:55.008Z,21.98
2018-07-15T01:24:25.414Z,21.98
2018-07-15T01:26:56.117Z,21.90
2018-07-15T01:29:26.473Z,21.89
2018-07-15T01:31:57.006Z,21.86
2018-07-15T01:34:27.730Z,21.82
2018-07-15T01:36:58.351Z,21.71
2018-07-15T01:39:28.229Z,21.75
2018-07-15T01:41:58.610Z,21.71
2018-07-15T01:44:28.983Z,21.60
2018-07-15T01:46:59.500Z,21.59
2018-07-15T01:49:30.233Z,21.53
2018-07-15T01:52:00.738Z,21.49
2018-07-15T01:54:31.374Z,21.51
2018-07-15T01:57:01.870Z,21.55
2018-07-15T01:59:31.918Z,21.59
2018-07-15T02:02:02.635Z,21.54
2018-07-15T02:04:32.967Z,21.53
2018-07-15T02:07:03.450Z,21.59
2018-07-15T02:09:33.960Z,21.62
2018-07-15T02:12:04.754Z,21.58
2018-07-15T02:14:35.176Z,21.67
2018-07-15T02:17:05.953Z,21.60
2018-07-15T02:19:36.452Z,21.55
2018-07-15T02:22:07.202Z,21.45
2018-07-15T02:24:38.338Z,21.46
2018-07-15T02:27:09.042Z,21.40
2018-07-15T02:29:39.681Z,21.44
2018-07-15T02:32:10.347Z,21.31
2018-07-15T02:34:40.803Z,21.32
2018-07-15T02:37:11.267Z,21.39
2018-07-15T02:39:41.719Z,21.25
2018-07-15T02:42:12.343Z,21.26
2018-07-15T02:44:42.645Z,21.19
2018-07-15T02:47:13.125Z,21.22
2018-07-15T02:49:43.644Z,21.17
2018-07-15T02:52:14.244Z,21.18
2018-07-15T02:54:44.652Z,21.16
2018-07-15T02:57:15.242Z,21.04
2018-07-15T03:00:03.599Z,21.10
2018-07-15T03:02:34.055Z,21.15
2018-07-15T03:05:04.778Z,21.14
2018-07-15T03:07:35.262Z,21.03
2018-07-15T03:10:05.379Z,21.09
2018-07-15T03:12:36.115Z,21.08
2018-07-15T03:15:06.712Z,20.97
2018-07-15T03:17:37.288Z,20.81
2018-07-15T03:20:08.021Z,20.80
2018-07-15T03:22:38.504Z,20.86
2018-07-15T03:25:09.136Z,20.84
2018-07-15T03:27:39.750Z,20.89
2018-07-15T03:30:10.307Z,20.91
2018-07-15T03:32:41.771Z,20.88
2018-07-15T03:35:12.218Z,20.82
2018-07-15T03:37:42.478Z,20.76
2018-07-15T03:40:12.848Z,20.75
2018-07-15T03:42:43.150Z,20.70
2018-07-15T03:45:13.641Z,20.66
2018-07-15T03:47:44.212Z,20.66
2018-07-15T03:50:14.626Z,20.69
2018-07-15T03:52:45.020Z,20.66
2018-07-15T03:55:15.048Z,20.86
2018-07-15T03:57:45.451Z,20.87
2018-07-15T04:00:15.843Z,20.85
2018-07-15T04:02:46.636Z,20.84
2018-07-15T04:05:17.127Z,20.74
2018-07-15T04:07:47.234Z,20.69
2018-07-15T04:10:17.911Z,20.61
2018-07-15T04:12:48.257Z,20.63
2018-07-15T04:15:18.531Z,20.70
2018-07-15T04:17:53.965Z,20.55
2018-07-15T04:20:24.411Z,20.43
2018-07-15T04:22:54.952Z,20.34
2018-07-15T04:25:54.052Z,20.27
2018-07-15T04:28:24.493Z,20.12
2018-07-15T04:30:54.927Z,19.87
2018-07-15T04:33:25.396Z,19.66
2018-07-15T04:35:55.806Z,19.58
2018-07-15T04:38:26.383Z,19.51
2018-07-15T04:40:56.711Z,19.32
2018-07-15T04:43:27.664Z,19.25
2018-07-15T04:45:58.099Z,19.09
2018-07-15T04:48:28.486Z,19.03
2018-07-15T04:50:58.827Z,19.00
2018-07-15T04:53:29.321Z,18.94
2018-07-15T04:55:59.914Z,18.89
2018-07-15T04:58:30.390Z,19.02
2018-07-15T05:01:00.923Z,19.00
2018-07-15T05:03:31.390Z,18.95
2018-07-15T05:06:02.068Z,18.99
2018-07-15T05:08:32.456Z,19.03
2018-07-15T05:11:03.071Z,19.06
2018-07-15T05:13:33.591Z,18.99
2018-07-15T05:16:04.090Z,18.89
2018-07-15T05:18:34.595Z,18.90
2018-07-15T05:21:04.921Z,18.91
2018-07-15T05:23:35.607Z,18.86
2018-07-15T05:26:06.267Z,18.80
2018-07-15T05:28:37.022Z,18.28
2018-07-15T05:31:07.554Z,17.72
2018-07-15T05:33:38.206Z,17.59
2018-07-15T05:36:09.660Z,17.54
2018-07-15T05:38:40.239Z,17.54
2018-07-15T05:41:10.831Z,17.58
2018-07-15T05:43:41.227Z,17.58
2018-07-15T05:46:11.668Z,17.65
2018-07-15T05:48:42.031Z,17.66
2018-07-15T05:51:12.596Z,17.69
2018-07-15T05:53:55.114Z,17.67
2018-07-15T05:56:26.357Z,17.68
2018-07-15T05:58:57.221Z,17.73
2018-07-15T06:01:27.662Z,17.82
2018-07-15T06:03:58.179Z,17.89
2018-07-15T06:06:28.656Z,17.93
2018-07-15T06:08:59.304Z,18.02
2018-07-15T06:11:29.834Z,18.09
2018-07-15T06:14:00.425Z,18.15
2018-07-15T06:16:30.687Z,18.13
2018-07-15T06:19:08.244Z,18.18
2018-07-15T06:21:38.860Z,18.23
2018-07-15T06:24:09.154Z,18.30
2018-07-15T06:26:39.543Z,18.31
2018-07-15T06:29:10.092Z,18.38
2018-07-15T06:31:40.607Z,18.43
2018-07-15T06:34:11.493Z,18.26
2018-07-15T06:36:42.871Z,18.24
2018-07-15T06:39:13.260Z,18.22
2018-07-15T06:41:43.715Z,18.26
2018-07-15T06:44:13.982Z,18.28
2018-07-15T06:46:43.881Z,18.34
2018-07-15T06:49:14.300Z,18.36
2018-07-15T06:51:44.605Z,18.41
2018-07-15T06:54:15.176Z,18.46
2018-07-15T06:56:46.756Z,18.35
2018-07-15T06:59:17.279Z,18.34
2018-07-15T07:01:47.524Z,18.47
2018-07-15T07:04:17.922Z,18.71
2018-07-15T07:06:48.374Z,18.97
2018-07-15T07:09:18.800Z,19.03
2018-07-15T07:11:49.145Z,18.99
2018-07-15T07:14:19.628Z,19.09
2018-07-15T07:16:50.212Z,19.32
2018-07-15T07:19:20.458Z,19.53
2018-07-15T07:21:51.091Z,19.63
2018-07-15T07:24:21.694Z,19.67
2018-07-15T07:26:54.224Z,19.88
2018-07-15T07:29:24.474Z,20.09
2018-07-15T07:31:54.871Z,20.17
2018-07-15T07:34:25.409Z,20.24
2018-07-15T07:36:56.264Z,20.15
2018-07-15T07:39:27.248Z,20.15
2018-07-15T07:41:57.740Z,20.34
2018-07-15T07:44:28.159Z,20.58
2018-07-15T07:47:08.091Z,20.98
2018-07-15T07:49:38.569Z,21.29
2018-07-15T07:52:10.014Z,21.98
2018-07-15T07:54:40.471Z,22.88
2018-07-15T07:57:10.772Z,23.21
2018-07-15T07:59:42.282Z,23.64
2018-07-15T08:02:12.767Z,23.76
2018-07-15T08:04:43.151Z,24.93
2018-07-15T08:07:13.655Z,25.50
2018-07-15T08:09:44.143Z,25.44
2018-07-15T08:12:14.649Z,25.33
2018-07-15T08:14:45.271Z,25.39
2018-07-15T08:17:15.652Z,26.82
2018-07-15T08:19:46.283Z,27.87
2018-07-15T08:22:16.631Z,28.76
2018-07-15T08:24:46.992Z,28.75
2018-07-15T08:27:17.553Z,29.50
2018-07-15T08:31:06.948Z,27.85
2018-07-15T08:33:37.555Z,28.69
2018-07-15T08:36:08.598Z,27.83
2018-07-15T08:38:49.585Z,28.04
2018-07-15T08:41:20.151Z,27.17
2018-07-15T08:43:50.904Z,28.08
2018-07-15T08:46:21.398Z,29.95
2018-07-15T08:48:51.963Z,30.80
2018-07-15T08:51:25.788Z,30.05
2018-07-15T08:53:56.273Z,29.72
2018-07-15T08:56:26.739Z,30.04
2018-07-15T08:58:56.748Z,30.37
2018-07-15T09:01:43.947Z,30.34
2018-07-15T09:04:14.310Z,31.87
2018-07-15T09:06:44.709Z,32.58
2018-07-15T09:09:15.032Z,33.75
2018-07-15T09:11:46.671Z,32.11
2018-07-15T09:14:21.202Z,31.63
2018-07-15T09:16:51.684Z,31.71
2018-07-15T09:19:21.989Z,31.60
2018-07-15T09:21:52.425Z,31.89
2018-07-15T09:24:22.867Z,31.17
2018-07-15T09:26:53.228Z,33.53
2018-07-15T09:29:37.076Z,33.16
2018-07-15T09:32:07.638Z,32.85
2018-07-15T09:34:38.152Z,34.83
2018-07-15T09:37:08.658Z,34.37
2018-07-15T09:39:39.009Z,32.44
2018-07-15T09:42:09.683Z,31.93
2018-07-15T09:44:40.271Z,31.91
2018-07-15T09:47:10.855Z,32.81
2018-07-15T09:50:05.758Z,34.08
2018-07-15T09:52:36.245Z,31.66
2018-07-15T09:55:07.313Z,34.66
2018-07-15T09:57:43.593Z,35.40
2018-07-15T10:00:18.971Z,35.93
2018-07-15T10:02:50.909Z,35.62
2018-07-15T10:05:26.294Z,33.98
2018-07-15T10:07:57.020Z,34.74
2018-07-15T10:10:29.018Z,35.12
2018-07-15T10:12:59.924Z,35.56
2018-07-15T10:15:32.201Z,32.62
2018-07-15T10:18:03.809Z,34.48
2018-07-15T10:20:35.184Z,33.09
2018-07-15T10:23:10.783Z,32.60
2018-07-15T10:25:41.336Z,32.51
2018-07-15T10:28:11.931Z,32.95
2018-07-15T10:30:42.565Z,33.16
2018-07-15T10:33:13.824Z,34.93
2018-07-15T10:35:43.951Z,34.83
2018-07-15T10:38:14.508Z,35.29
2018-07-15T10:40:44.868Z,35.17
2018-07-15T10:43:15.189Z,34.71
2018-07-15T10:45:45.562Z,34.96
2018-07-15T10:48:16.042Z,36.50
2018-07-15T10:50:46.703Z,37.28
2018-07-15T10:53:17.315Z,37.72
2018-07-15T10:55:54.894Z,37.97
2018-07-15T10:58:25.279Z,35.82
2018-07-15T11:00:55.839Z,36.80
2018-07-15T11:03:25.869Z,36.06
2018-07-15T11:05:57.035Z,36.39
2018-07-15T11:08:27.414Z,36.68
2018-07-15T11:10:57.915Z,35.28
2018-07-15T11:13:28.346Z,33.93
2018-07-15T11:16:03.239Z,32.76
2018-07-15T11:18:33.770Z,35.54
2018-07-15T11:21:04.117Z,37.00
2018-07-15T11:23:34.651Z,36.39
2018-07-15T11:26:05.303Z,36.56
2018-07-15T11:28:35.691Z,36.58
2018-07-15T11:31:06.479Z,38.57
2018-07-15T11:33:36.806Z,38.22
2018-07-15T11:36:09.220Z,39.42
2018-07-15T11:38:39.746Z,39.39
2018-07-15T11:41:12.216Z,39.59
2018-07-15T11:43:43.469Z,39.50
2018-07-15T11:46:14.149Z,40.51
2018-07-15T11:48:45.758Z,39.08
2018-07-15T11:51:15.939Z,38.80
2018-07-15T11:53:46.378Z,39.69
2018-07-15T11:56:17.194Z,40.08
2018-07-15T11:58:47.590Z,40.28
2018-07-15T12:01:18.152Z,39.52
2018-07-15T12:03:48.630Z,38.04
2018-07-15T12:06:19.415Z,39.13
2018-07-15T12:08:49.815Z,36.45
2018-07-15T12:11:20.044Z,38.43
2018-07-15T12:13:50.139Z,39.85
2018-07-15T12:16:24.231Z,40.28
2018-07-15T12:18:54.670Z,39.97
2018-07-15T12:21:25.054Z,41.85
2018-07-15T12:23:55.629Z,42.40
2018-07-15T12:26:26.053Z,41.78
2018-07-15T12:28:56.631Z,41.26
2018-07-15T12:31:27.136Z,41.60
2018-07-15T12:33:57.466Z,41.26
2018-07-15T12:36:27.928Z,41.91
2018-07-15T12:38:58.419Z,40.92
2018-07-15T12:41:28.797Z,40.63
2018-07-15T12:43:59.223Z,41.04
2018-07-15T12:46:29.590Z,43.31
2018-07-15T12:49:00.061Z,41.91
2018-07-15T12:51:30.702Z,42.38
2018-07-15T12:54:01.137Z,43.57
2018-07-15T12:56:31.509Z,43.23
2018-07-15T12:59:02.098Z,44.53
2018-07-15T13:01:32.599Z,43.93
2018-07-15T13:04:03.128Z,44.06
2018-07-15T13:06:33.579Z,44.94
2018-07-15T13:09:04.076Z,43.96
2018-07-15T13:11:34.127Z,40.24
2018-07-15T13:14:04.274Z,37.36
2018-07-15T13:16:34.365Z,36.53
2018-07-15T13:19:04.800Z,37.85
2018-07-15T13:21:34.828Z,39.10
2018-07-15T13:24:05.124Z,38.65
2018-07-15T13:26:35.887Z,39.36
2018-07-15T13:29:11.387Z,41.50
2018-07-15T13:31:42.138Z,39.35
2018-07-15T13:34:12.620Z,39.48
2018-07-15T13:36:42.483Z,40.17
2018-07-15T13:39:13.086Z,39.88
2018-07-15T13:41:43.120Z,39.52
2018-07-15T13:44:13.992Z,36.74
2018-07-15T13:46:44.642Z,36.84
2018-07-15T13:49:15.150Z,40.90
2018-07-15T13:51:45.233Z,43.50
2018-07-15T13:54:15.693Z,40.62
2018-07-15T13:56:46.341Z,42.59
2018-07-15T13:59:17.558Z,44.10
2018-07-15T14:01:49.733Z,42.61
2018-07-15T14:04:21.113Z,41.86
2018-07-15T14:06:52.117Z,37.79
2018-07-15T14:09:23.285Z,38.12
2018-07-15T14:11:56.288Z,37.20
2018-07-15T14:14:26.771Z,36.53
2018-07-15T14:16:57.672Z,39.56
2018-07-15T14:19:28.170Z,38.19
2018-07-15T14:21:58.786Z,36.25
2018-07-15T14:24:29.295Z,37.99
2018-07-15T14:26:59.814Z,37.08
2018-07-15T14:29:30.426Z,36.95
2018-07-15T14:32:01.216Z,39.72
2018-07-15T14:34:32.242Z,36.69
2018-07-15T14:37:02.960Z,37.65
2018-07-15T14:39:40.780Z,38.79
2018-07-15T14:42:11.431Z,37.95
2018-07-15T14:44:42.304Z,37.16
2018-07-15T14:47:13.335Z,35.99
2018-07-15T14:49:44.335Z,33.76
2018-07-15T14:52:15.381Z,33.06
2018-07-15T14:54:46.289Z,31.79
2018-07-15T14:57:17.356Z,32.42
2018-07-15T14:59:48.378Z,31.53
2018-07-15T15:02:19.394Z,31.47
2018-07-15T15:04:50.395Z,31.41
2018-07-15T15:07:21.408Z,30.04
2018-07-15T15:09:52.398Z,30.35
2018-07-15T15:12:23.430Z,30.34
2018-07-15T15:14:54.441Z,31.14
2018-07-15T15:17:26.465Z,30.82
2018-07-15T15:19:57.470Z,30.89
2018-07-15T15:22:28.475Z,30.93
2018-07-15T15:24:59.423Z,31.38
2018-07-15T15:27:30.209Z,31.62
2018-07-15T15:30:01.136Z,33.67
2018-07-15T15:32:32.532Z,36.27
2018-07-15T15:35:03.544Z,34.77
2018-07-15T15:37:34.531Z,35.28
2018-07-15T15:40:05.557Z,37.98
2018-07-15T15:42:36.602Z,36.31
2018-07-15T15:45:07.907Z,34.08
2018-07-15T15:47:39.187Z,34.32
2018-07-15T15:50:36.214Z,36.37
2018-07-15T15:53:07.249Z,37.75
2018-07-15T15:55:38.097Z,37.56
2018-07-15T15:58:08.992Z,36.65
2018-07-15T16:00:39.973Z,35.07
2018-07-15T16:03:11.654Z,34.60
2018-07-15T16:05:46.980Z,34.91
2018-07-15T16:08:18.006Z,35.53
2018-07-15T16:10:48.885Z,34.01
2018-07-15T16:13:19.736Z,33.72
2018-07-15T16:15:50.260Z,32.48
2018-07-15T16:18:21.307Z,32.22
2018-07-15T16:20:52.373Z,34.22
2018-07-15T16:23:34.772Z,32.55
2018-07-15T16:26:06.265Z,34.56
2018-07-15T16:28:37.752Z,33.52
2018-07-15T16:31:07.892Z,34.03
2018-07-15T16:33:38.805Z,32.57
2018-07-15T16:36:09.814Z,31.97
2018-07-15T16:38:51.810Z,34.86
2018-07-15T16:41:22.497Z,36.12
2018-07-15T16:43:53.533Z,36.47
2018-07-15T16:46:24.765Z,36.65
2018-07-15T16:49:03.251Z,33.81
2018-07-15T16:51:34.871Z,31.69
2018-07-15T16:54:08.577Z,32.51
2018-07-15T16:56:40.031Z,33.42
2018-07-15T16:59:11.193Z,32.95
2018-07-15T17:01:42.893Z,32.38
2018-07-15T17:04:13.964Z,32.01
2018-07-15T17:06:45.103Z,31.23
2018-07-15T17:09:15.968Z,31.08
2018-07-15T17:11:46.675Z,30.15
2018-07-15T17:14:17.040Z,28.75
2018-07-15T17:16:47.755Z,28.59
2018-07-15T17:19:18.742Z,28.28
2018-07-15T17:21:49.673Z,28.24
2018-07-15T17:24:21.073Z,27.64
2018-07-15T17:26:52.130Z,27.35
2018-07-15T17:29:23.167Z,27.14
2018-07-15T17:32:06.107Z,26.91
2018-07-15T17:34:37.105Z,26.38
2018-07-15T17:37:08.157Z,25.81
2018-07-15T17:39:39.123Z,25.79
2018-07-15T17:42:10.148Z,25.83
2018-07-15T17:44:41.165Z,25.72
2018-07-15T17:47:11.844Z,25.87
2018-07-15T17:49:42.859Z,25.88
2018-07-15T17:52:13.736Z,25.68
2018-07-15T17:55:00.828Z,25.32
2018-07-15T17:57:31.224Z,25.02
2018-07-15T18:00:02.169Z,24.66
2018-07-15T18:02:33.786Z,24.38
2018-07-15T18:05:04.130Z,24.18
2018-07-15T18:07:34.668Z,24.03
2018-07-15T18:10:05.142Z,23.91
2018-07-15T18:12:35.539Z,23.89
2018-07-15T18:15:06.258Z,23.64
2018-07-15T18:17:36.794Z,23.58
2018-07-15T18:20:07.714Z,23.49
2018-07-15T18:22:38.036Z,23.45
2018-07-15T18:25:08.797Z,23.42
2018-07-15T18:27:39.985Z,23.35
2018-07-15T18:30:10.647Z,23.15
2018-07-15T18:32:40.793Z,23.10
2018-07-15T18:35:11.393Z,23.20
2018-07-15T18:37:41.832Z,23.03
2018-07-15T18:40:12.266Z,22.98
2018-07-15T18:42:42.818Z,22.94
2018-07-15T18:45:13.287Z,22.76
2018-07-15T18:47:43.915Z,22.58
2018-07-15T18:50:14.372Z,22.48
2018-07-15T18:52:45.046Z,22.35
2018-07-15T18:55:15.660Z,22.26
2018-07-15T18:57:46.055Z,22.29
2018-07-15T19:00:16.433Z,22.18
2018-07-15T19:02:47.065Z,22.08
2018-07-15T19:05:17.507Z,21.99
2018-07-15T19:07:48.002Z,21.93
2018-07-15T19:10:18.365Z,21.79
2018-07-15T19:12:49.078Z,21.62
2018-07-15T19:15:19.549Z,21.60
2018-07-15T19:17:51.207Z,21.58
2018-07-15T19:20:21.851Z,21.48
2018-07-15T19:22:53.143Z,21.43
2018-07-15T19:25:23.770Z,21.41
2018-07-15T19:27:54.226Z,21.41
2018-07-15T19:30:24.619Z,21.39
2018-07-15T19:32:59.072Z,21.39
2018-07-15T19:35:30.144Z,21.40
2018-07-15T19:38:02.341Z,21.38
2018-07-15T19:40:33.167Z,21.25
2018-07-15T19:43:03.767Z,21.24
2018-07-15T19:45:36.365Z,21.27
2018-07-15T19:48:06.797Z,21.33
2018-07-15T19:50:37.324Z,21.36
2018-07-15T19:53:08.043Z,21.42
2018-07-15T19:55:38.652Z,21.43
2018-07-15T19:58:11.553Z,21.48
2018-07-15T20:00:52.689Z,21.42
2018-07-15T20:03:28.569Z,21.39
2018-07-15T20:05:58.933Z,21.55
2018-07-15T20:08:29.219Z,21.51
2018-07-15T20:11:03.362Z,21.75
2018-07-15T20:13:33.944Z,21.93
2018-07-15T20:16:19.097Z,22.16
2018-07-15T20:18:50.269Z,22.34
2018-07-15T20:21:21.242Z,22.43
2018-07-15T20:23:55.285Z,22.56
2018-07-15T20:26:27.803Z,22.54
2018-07-15T20:28:59.105Z,22.53
2018-07-15T20:31:33.092Z,22.30
2018-07-15T20:34:13.061Z,22.34
2018-07-15T20:36:45.364Z,22.19
2018-07-15T20:39:16.200Z,21.87
2018-07-15T20:41:52.756Z,21.46
2018-07-15T20:44:23.959Z,20.91
2018-07-15T20:46:54.520Z,20.56
2018-07-15T20:49:25.304Z,20.34
2018-07-15T20:51:57.850Z,20.22
2018-07-15T20:54:28.188Z,20.02
2018-07-15T20:56:59.229Z,19.88
2018-07-15T20:59:29.733Z,19.78
2018-07-15T21:02:00.694Z,19.70
2018-07-15T21:04:34.378Z,19.65
2018-07-15T21:07:04.821Z,19.65
2018-07-15T21:09:36.201Z,19.83
2018-07-15T21:12:08.797Z,19.87
2018-07-15T21:14:39.155Z,19.69
2018-07-15T21:17:09.407Z,19.74
2018-07-15T21:19:39.240Z,19.67
2018-07-15T21:22:09.676Z,19.66
2018-07-15T21:24:40.184Z,19.72
2018-07-15T21:27:10.713Z,19.72
2018-07-15T21:29:41.409Z,19.74
2018-07-15T21:32:13.833Z,19.79
2018-07-15T21:34:44.703Z,19.85
2018-07-15T21:37:16.162Z,19.92
2018-07-15T21:39:46.632Z,19.46
2018-07-15T21:42:17.321Z,19.02
2018-07-15T21:44:47.727Z,18.98
2018-07-15T21:47:24.000Z,18.76
2018-07-15T21:49:56.112Z,18.57
2018-07-15T21:52:26.656Z,18.32
2018-07-15T21:54:57.152Z,18.30
2018-07-15T21:57:28.518Z,18.30
2018-07-15T21:59:59.579Z,18.29
2018-07-15T22:02:38.287Z,18.28
2018-07-15T22:05:09.780Z,18.18
2018-07-15T22:07:56.741Z,18.07
2018-07-15T22:10:40.346Z,18.06
2018-07-15T22:13:10.690Z,18.13
2018-07-15T22:15:41.672Z,18.14
2018-07-15T22:18:12.122Z,18.15
2018-07-15T22:20:42.806Z,18.16
2018-07-15T22:23:13.293Z,18.11
2018-07-15T22:25:51.983Z,18.07
2018-07-15T22:28:22.562Z,18.06
2018-07-15T22:30:53.068Z,18.02
2018-07-15T22:33:23.596Z,18.00
2018-07-15T22:35:53.965Z,18.00
2018-07-15T22:38:24.476Z,17.98
2018-07-15T22:40:54.895Z,17.95
2018-07-15T22:43:25.323Z,17.99
2018-07-15T22:45:55.958Z,17.91
2018-07-15T22:48:26.665Z,17.88
2018-07-15T22:50:57.223Z,17.92
2018-07-15T22:53:27.995Z,17.97
2018-07-15T22:55:58.505Z,17.95
2018-07-15T22:58:28.996Z,17.94
2018-07-15T23:00:59.598Z,17.87
2018-07-15T23:03:30.347Z,17.83
2018-07-15T23:06:18.676Z,17.83
2018-07-15T23:08:49.125Z,17.93
2018-07-15T23:11:19.600Z,17.96
2018-07-15T23:13:50.006Z,17.97
2018-07-15T23:16:20.695Z,17.93
2018-07-15T23:18:51.092Z,17.89
2018-07-15T23:21:21.458Z,17.92
2018-07-15T23:23:57.536Z,17.94
2018-07-15T23:26:27.971Z,17.92
2018-07-15T23:28:58.476Z,17.85
2018-07-15T23:31:29.927Z,17.81
2018-07-15T23:34:00.337Z,17.84
2018-07-15T23:36:30.498Z,17.85
2018-07-15T23:39:00.987Z,17.88
2018-07-15T23:41:31.952Z,17.89
2018-07-15T23:44:06.495Z,17.91
2018-07-15T23:46:37.988Z,17.83
2018-07-15T23:49:08.426Z,17.76
2018-07-15T23:51:38.900Z,17.75
2018-07-15T23:54:09.463Z,17.71
2018-07-15T23:56:39.996Z,17.75
2018-07-15T23:59:10.457Z,17.78
